Private Wetterstation Sandau
Wetterdaten: Woche 02.07.12 - 08.07.12 (KW27)
Datum Zeit Temp. A. Feuchte A. Luftdruck Regen Wind Richtung Taupunkt Windchill
02.07.2012 00:00 17,0 C 77 % 1020,3 hPa 0,0 l/m 4,5 km/h (1 Bft) W 12,9 C 17,0 C
02.07.2012 01:00 16,4 C 76 % 1020,9 hPa 0,0 l/m 4,2 km/h (1 Bft) W-NW 12,2 C 16,4 C
02.07.2012 02:00 15,4 C 75 % 1021,1 hPa 0,0 l/m 3,7 km/h (1 Bft) W 11,0 C 15,4 C
02.07.2012 03:00 15,0 C 75 % 1021,5 hPa 0,0 l/m 1,3 km/h (1 Bft) W 10,6 C 15,0 C
02.07.2012 04:00 14,0 C 77 % 1021,9 hPa 0,0 l/m 0,1 km/h (0 Bft) W-SW 10,0 C 14,0 C
02.07.2012 05:00 13,7 C 79 % 1022,4 hPa 0,0 l/m 0,6 km/h (0 Bft) S-SW 10,0 C 13,7 C
02.07.2012 06:00 16,8 C 72 % 1022,5 hPa 0,0 l/m 1,1 km/h (1 Bft) S-SO 11,6 C 16,8 C
02.07.2012 07:00 18,1 C 67 % 1022,6 hPa 0,0 l/m 2,7 km/h (1 Bft) W-SW 11,8 C 18,1 C
02.07.2012 08:00 19,2 C 61 % 1022,7 hPa 0,0 l/m 2,8 km/h (1 Bft) W-SW 11,3 C 19,2 C
02.07.2012 09:00 19,4 C 56 % 1023,0 hPa 0,0 l/m 1,9 km/h (1 Bft) NO 10,4 C 19,4 C
02.07.2012 10:00 20,5 C 53 % 1023,0 hPa 0,0 l/m 3,0 km/h (1 Bft) W-SW 10,6 C 20,5 C
02.07.2012 11:00 20,6 C 52 % 1023,0 hPa 0,0 l/m 2,4 km/h (1 Bft) S 10,3 C 20,6 C
02.07.2012 12:00 21,1 C 49 % 1022,5 hPa 0,0 l/m 3,3 km/h (1 Bft) S-SW 10,0 C 21,1 C
02.07.2012 13:00 22,1 C 49 % 1022,2 hPa 0,0 l/m 3,2 km/h (1 Bft) W-NW 10,7 C 22,1 C
02.07.2012 14:00 22,3 C 48 % 1022,0 hPa 0,0 l/m 4,0 km/h (1 Bft) W-SW 10,8 C 22,3 C
02.07.2012 15:00 21,3 C 52 % 1021,8 hPa 0,0 l/m 3,4 km/h (1 Bft) W 10,9 C 21,3 C
02.07.2012 16:00 20,3 C 56 % 1021,8 hPa 0,5 l/m 0,9 km/h (0 Bft) W-NW 11,3 C 20,3 C
02.07.2012 17:00 18,4 C 68 % 1021,5 hPa 1,6 l/m 1,4 km/h (1 Bft) NO 12,4 C 18,4 C
02.07.2012 18:00 17,7 C 73 % 1021,3 hPa 0,0 l/m 1,8 km/h (1 Bft) O 12,8 C 17,7 C
02.07.2012 19:00 17,4 C 77 % 1021,3 hPa 0,0 l/m 0,9 km/h (0 Bft) NO 13,3 C 17,4 C
02.07.2012 20:00 16,9 C 81 % 1021,1 hPa 0,0 l/m 6,8 km/h (2 Bft) SO 13,6 C 16,9 C
02.07.2012 21:00 16,6 C 81 % 1020,5 hPa 0,5 l/m 18,8 km/h (3 Bft) SO 13,3 C 16,6 C
02.07.2012 22:00 16,4 C 81 % 1020,0 hPa 0,0 l/m 1,6 km/h (1 Bft) O-NO 13,2 C 16,4 C
02.07.2012 23:00 16,0 C 82 % 1020,4 hPa 0,0 l/m 0,5 km/h (0 Bft) N 12,9 C 16,0 C
03.07.2012 00:00 16,1 C 82 % 1020,4 hPa 0,0 l/m 0,9 km/h (0 Bft) N-NO 13,0 C 16,1 C
03.07.2012 01:00 15,6 C 84 % 1019,8 hPa 0,0 l/m 1,8 km/h (1 Bft) N-NO 12,9 C 15,6 C
03.07.2012 02:00 15,5 C 84 % 1019,2 hPa 0,0 l/m 2,5 km/h (1 Bft) N 12,8 C 15,5 C
03.07.2012 03:00 15,7 C 83 % 1019,2 hPa 0,0 l/m 1,6 km/h (1 Bft) N 12,9 C 15,7 C
03.07.2012 04:00 15,8 C 82 % 1019,0 hPa 0,0 l/m 2,0 km/h (1 Bft) NO 12,7 C 15,8 C
03.07.2012 05:00 15,8 C 82 % 1019,3 hPa 0,0 l/m 4,2 km/h (1 Bft) O-NO 12,7 C 15,8 C
03.07.2012 06:00 15,8 C 80 % 1019,2 hPa 0,0 l/m 3,4 km/h (1 Bft) O-NO 12,4 C 15,8 C
03.07.2012 07:00 16,3 C 78 % 1019,2 hPa 0,0 l/m 2,2 km/h (1 Bft) O 12,3 C 16,3 C
03.07.2012 08:00 16,9 C 76 % 1019,4 hPa 0,0 l/m 1,0 km/h (0 Bft) N-NO 12,6 C 16,9 C
03.07.2012 09:00 16,9 C 77 % 1019,5 hPa 0,0 l/m 1,4 km/h (1 Bft) N-NO 12,9 C 16,9 C
03.07.2012 10:00 18,3 C 74 % 1019,7 hPa 0,0 l/m 2,5 km/h (1 Bft) N-NO 13,6 C 18,3 C
03.07.2012 11:00 20,3 C 69 % 1019,6 hPa 0,0 l/m 3,9 km/h (1 Bft) N-NO 14,5 C 20,3 C
03.07.2012 12:00 22,1 C 67 % 1019,2 hPa 0,0 l/m 4,9 km/h (1 Bft) NW 15,6 C 22,1 C
03.07.2012 13:00 23,1 C 64 % 1018,8 hPa 0,0 l/m 4,1 km/h (1 Bft) N-NO 15,9 C 23,1 C
03.07.2012 14:00 23,5 C 62 % 1018,5 hPa 0,0 l/m 3,3 km/h (1 Bft) N-NO 15,8 C 23,5 C
03.07.2012 15:00 22,9 C 65 % 1018,5 hPa 0,0 l/m 5,2 km/h (1 Bft) N-NO 15,9 C 22,9 C
03.07.2012 16:00 22,2 C 67 % 1018,6 hPa 0,0 l/m 7,0 km/h (2 Bft) NO 15,7 C 22,2 C
03.07.2012 17:00 21,9 C 68 % 1018,3 hPa 0,0 l/m 4,3 km/h (1 Bft) N-NO 15,8 C 21,9 C
03.07.2012 18:00 21,4 C 70 % 1018,2 hPa 0,0 l/m 4,1 km/h (1 Bft) N 15,7 C 21,4 C
03.07.2012 19:00 21,0 C 72 % 1018,2 hPa 0,0 l/m 2,6 km/h (1 Bft) N-NW 15,7 C 21,0 C
03.07.2012 20:00 20,7 C 75 % 1017,9 hPa 0,0 l/m 2,0 km/h (1 Bft) N-NO 16,0 C 20,7 C
03.07.2012 21:00 20,0 C 76 % 1017,8 hPa 0,0 l/m 1,7 km/h (1 Bft) N-NW 15,6 C 20,0 C
03.07.2012 22:00 19,5 C 78 % 1018,1 hPa 0,0 l/m 1,1 km/h (0 Bft) N-NW 15,4 C 19,5 C
03.07.2012 23:00 19,0 C 79 % 1018,2 hPa 0,0 l/m 0,4 km/h (0 Bft) NW 15,2 C 19,0 C
04.07.2012 00:00 18,4 C 81 % 1018,4 hPa 0,0 l/m 0,8 km/h (0 Bft) N-NO 15,0 C 18,4 C
04.07.2012 01:00 18,2 C 82 % 1018,1 hPa 0,0 l/m 2,9 km/h (1 Bft) O-NO 15,1 C 18,2 C
04.07.2012 02:00 17,3 C 83 % 1018,1 hPa 0,0 l/m 4,8 km/h (1 Bft) O-NO 14,4 C 17,3 C
04.07.2012 03:00 16,8 C 85 % 1017,9 hPa 0,0 l/m 3,3 km/h (1 Bft) O-NO 14,3 C 16,8 C
04.07.2012 04:00 16,7 C 87 % 1017,7 hPa 0,0 l/m 2,8 km/h (1 Bft) O-NO 14,4 C 16,7 C
04.07.2012 05:00 16,4 C 88 % 1017,5 hPa 0,0 l/m 2,2 km/h (1 Bft) O 14,3 C 16,4 C
04.07.2012 06:00 17,1 C 87 % 1017,2 hPa 0,0 l/m 1,2 km/h (1 Bft) O-NO 14,9 C 17,1 C
04.07.2012 07:00 19,0 C 82 % 1017,1 hPa 0,0 l/m 3,3 km/h (1 Bft) O-NO 15,8 C 19,0 C
04.07.2012 08:00 20,3 C 77 % 1017,4 hPa 0,0 l/m 4,5 km/h (1 Bft) NO 16,3 C 20,3 C
04.07.2012 09:00 20,4 C 77 % 1017,4 hPa 0,0 l/m 7,1 km/h (2 Bft) NO 16,3 C 20,4 C
04.07.2012 10:00 20,6 C 76 % 1017,4 hPa 0,0 l/m 4,9 km/h (1 Bft) NO 16,2 C 20,6 C
04.07.2012 11:00 22,3 C 72 % 1017,1 hPa 0,0 l/m 3,8 km/h (1 Bft) NO 17,1 C 22,3 C
04.07.2012 12:00 22,9 C 68 % 1016,9 hPa 0,0 l/m 6,0 km/h (2 Bft) NO 16,6 C 22,9 C
04.07.2012 13:00 24,2 C 62 % 1016,6 hPa 0,0 l/m 4,9 km/h (1 Bft) O-NO 16,5 C 24,2 C
04.07.2012 14:00 25,6 C 56 % 1016,4 hPa 0,0 l/m 4,7 km/h (1 Bft) NO 16,2 C 25,6 C
04.07.2012 15:00 25,5 C 55 % 1015,9 hPa 0,0 l/m 4,9 km/h (1 Bft) NO 15,8 C 25,5 C
04.07.2012 16:00 25,8 C 54 % 1015,6 hPa 0,0 l/m 5,4 km/h (1 Bft) NO 15,8 C 25,8 C
04.07.2012 17:00 26,6 C 51 % 1015,2 hPa 0,0 l/m 7,8 km/h (2 Bft) O-NO 15,7 C 26,6 C
04.07.2012 18:00 26,1 C 52 % 1014,9 hPa 0,0 l/m 6,6 km/h (2 Bft) O-NO 15,4 C 26,1 C
04.07.2012 19:00 25,4 C 55 % 1014,9 hPa 0,0 l/m 6,3 km/h (2 Bft) O-NO 15,6 C 25,4 C
04.07.2012 20:00 23,7 C 61 % 1014,9 hPa 0,0 l/m 3,1 km/h (1 Bft) O-NO 15,9 C 23,7 C
04.07.2012 21:00 22,2 C 66 % 1015,4 hPa 0,0 l/m 2,5 km/h (1 Bft) O-NO 15,6 C 22,2 C
04.07.2012 22:00 20,8 C 71 % 1015,6 hPa 0,0 l/m 6,8 km/h (2 Bft) O-NO 15,4 C 20,8 C
04.07.2012 23:00 19,7 C 75 % 1015,9 hPa 0,0 l/m 3,5 km/h (1 Bft) O-NO 15,1 C 19,7 C
05.07.2012 00:00 18,7 C 79 % 1016,0 hPa 0,0 l/m 3,3 km/h (1 Bft) O-NO 14,9 C 18,7 C
05.07.2012 01:00 17,7 C 82 % 1016,2 hPa 0,0 l/m 5,8 km/h (1 Bft) O 14,6 C 17,7 C
05.07.2012 02:00 17,0 C 85 % 1015,9 hPa 0,0 l/m 6,6 km/h (2 Bft) O-SO 14,4 C 17,0 C
05.07.2012 03:00 16,5 C 86 % 1015,7 hPa 0,0 l/m 6,7 km/h (2 Bft) O-NO 14,1 C 16,5 C
05.07.2012 04:00 15,9 C 87 % 1015,2 hPa 0,0 l/m 4,6 km/h (1 Bft) O 13,8 C 15,9 C
05.07.2012 05:00 15,8 C 90 % 1015,1 hPa 0,0 l/m 5,9 km/h (2 Bft) O-NO 14,1 C 15,8 C
05.07.2012 06:00 16,3 C 91 % 1015,2 hPa 0,0 l/m 7,3 km/h (2 Bft) O 14,8 C 16,3 C
05.07.2012 07:00 17,1 C 91 % 1015,5 hPa 0,0 l/m 5,5 km/h (1 Bft) O-NO 15,6 C 17,1 C
05.07.2012 08:00 17,9 C 90 % 1015,5 hPa 0,0 l/m 5,6 km/h (1 Bft) O-NO 16,2 C 17,9 C
05.07.2012 09:00 19,0 C 87 % 1015,2 hPa 0,0 l/m 5,3 km/h (1 Bft) NO 16,9 C 19,0 C
05.07.2012 10:00 20,0 C 85 % 1015,3 hPa 0,0 l/m 6,5 km/h (2 Bft) O-NO 17,4 C 20,0 C
05.07.2012 11:00 21,7 C 80 % 1015,1 hPa 0,0 l/m 4,6 km/h (1 Bft) O-NO 18,1 C 21,7 C
05.07.2012 12:00 23,5 C 74 % 1014,8 hPa 0,0 l/m 8,0 km/h (2 Bft) O-NO 18,6 C 23,5 C
05.07.2012 13:00 25,1 C 67 % 1014,3 hPa 0,0 l/m 7,7 km/h (2 Bft) O-NO 18,4 C 25,1 C
05.07.2012 14:00 25,9 C 64 % 1013,6 hPa 0,0 l/m 8,4 km/h (2 Bft) O-NO 18,5 C 25,9 C
05.07.2012 15:00 26,6 C 61 % 1013,1 hPa 0,0 l/m 8,5 km/h (2 Bft) O-NO 18,4 C 26,6 C
05.07.2012 16:00 26,4 C 62 % 1012,7 hPa 0,0 l/m 9,7 km/h (2 Bft) NO 18,4 C 26,4 C
05.07.2012 17:00 26,1 C 64 % 1012,2 hPa 0,0 l/m 9,3 km/h (2 Bft) O-NO 18,6 C 26,1 C
05.07.2012 18:00 25,7 C 65 % 1011,6 hPa 0,0 l/m 4,9 km/h (1 Bft) O-NO 18,7 C 25,7 C
05.07.2012 19:00 25,1 C 68 % 1011,6 hPa 0,0 l/m 5,2 km/h (1 Bft) NO 18,7 C 25,1 C
05.07.2012 20:00 24,2 C 71 % 1011,1 hPa 0,0 l/m 7,3 km/h (2 Bft) O-NO 18,5 C 24,2 C
05.07.2012 21:00 23,1 C 75 % 1010,8 hPa 0,0 l/m 8,4 km/h (2 Bft) NO 18,5 C 23,1 C
05.07.2012 22:00 21,9 C 81 % 1010,6 hPa 0,0 l/m 8,4 km/h (2 Bft) O-NO 18,4 C 21,9 C
05.07.2012 23:00 21,0 C 85 % 1010,2 hPa 0,5 l/m 5,8 km/h (2 Bft) NO 18,3 C 21,0 C
06.07.2012 00:00 20,4 C 86 % 1010,0 hPa 0,0 l/m 6,0 km/h (2 Bft) O-NO 17,9 C 20,4 C
06.07.2012 01:00 19,8 C 86 % 1009,4 hPa 0,0 l/m 6,2 km/h (2 Bft) NO 17,4 C 19,8 C
06.07.2012 02:00 19,4 C 87 % 1009,3 hPa 0,0 l/m 7,7 km/h (2 Bft) NO 17,1 C 19,4 C
06.07.2012 03:00 19,3 C 88 % 1009,2 hPa 0,0 l/m 4,2 km/h (1 Bft) O-NO 17,2 C 19,3 C
06.07.2012 04:00 19,3 C 88 % 1009,1 hPa 0,0 l/m 2,5 km/h (1 Bft) N 17,3 C 19,3 C
06.07.2012 05:00 19,0 C 89 % 1009,1 hPa 0,0 l/m 2,8 km/h (1 Bft) N-NO 17,0 C 19,0 C
06.07.2012 06:00 18,9 C 89 % 1009,0 hPa 0,0 l/m 2,9 km/h (1 Bft) N-NO 17,0 C 18,9 C
06.07.2012 07:00 19,1 C 89 % 1009,2 hPa 0,0 l/m 0,2 km/h (0 Bft) N-NO 17,3 C 19,1 C
06.07.2012 08:00 19,9 C 88 % 1009,5 hPa 0,0 l/m 1,5 km/h (1 Bft) S-SO 17,8 C 19,9 C
06.07.2012 09:00 21,0 C 85 % 1010,0 hPa 0,0 l/m 5,9 km/h (2 Bft) SW 18,4 C 21,0 C
06.07.2012 10:00 22,0 C 82 % 1010,4 hPa 0,0 l/m 5,3 km/h (1 Bft) W-SW 18,7 C 22,0 C
06.07.2012 11:00 23,9 C 75 % 1010,6 hPa 0,0 l/m 2,9 km/h (1 Bft) W-SW 19,3 C 23,9 C
06.07.2012 12:00 25,7 C 70 % 1010,7 hPa 0,0 l/m 3,6 km/h (1 Bft) S 19,7 C 25,7 C
06.07.2012 13:00 27,2 C 65 % 1010,8 hPa 0,0 l/m 5,9 km/h (2 Bft) S-SO 19,9 C 27,2 C
06.07.2012 14:00 28,6 C 60 % 1010,9 hPa 0,0 l/m 4,5 km/h (1 Bft) S 20,0 C 28,6 C
06.07.2012 15:00 29,1 C 57 % 1011,0 hPa 0,0 l/m 5,4 km/h (1 Bft) S 19,6 C 29,1 C
06.07.2012 16:00 28,9 C 56 % 1011,2 hPa 0,0 l/m 7,7 km/h (2 Bft) S 19,1 C 28,9 C
06.07.2012 17:00 25,6 C 57 % 1011,6 hPa 0,0 l/m 6,7 km/h (2 Bft) N-NW 16,4 C 25,6 C
06.07.2012 18:00 24,7 C 62 % 1011,9 hPa 0,0 l/m 1,6 km/h (1 Bft) W 16,9 C 24,7 C
06.07.2012 19:00 23,6 C 71 % 1012,0 hPa 0,0 l/m 0,8 km/h (0 Bft) S-SO 17,9 C 23,6 C
06.07.2012 20:00 23,4 C 73 % 1012,3 hPa 0,0 l/m 0,9 km/h (0 Bft) S-SO 18,4 C 23,4 C
06.07.2012 21:00 22,7 C 76 % 1012,5 hPa 0,0 l/m 1,3 km/h (1 Bft) O-NO 18,1 C 22,7 C
06.07.2012 22:00 22,0 C 78 % 1012,9 hPa 0,0 l/m 0,8 km/h (0 Bft) SO 18,0 C 22,0 C
06.07.2012 23:00 21,8 C 78 % 1012,6 hPa 0,0 l/m 0,3 km/h (0 Bft) SO 17,8 C 21,8 C
07.07.2012 00:00 21,5 C 78 % 1012,7 hPa 0,0 l/m 0,1 km/h (0 Bft) SO 17,6 C 21,5 C
07.07.2012 01:00 21,6 C 80 % 1012,8 hPa 0,0 l/m 0,8 km/h (0 Bft) W 17,9 C 21,6 C
07.07.2012 02:00 21,5 C 81 % 1012,9 hPa 0,0 l/m 1,0 km/h (0 Bft) W-NW 18,1 C 21,5 C
07.07.2012 03:00 21,1 C 82 % 1012,8 hPa 0,0 l/m 0,4 km/h (0 Bft) W-NW 17,9 C 21,1 C
07.07.2012 04:00 20,9 C 83 % 1012,8 hPa 0,0 l/m 1,1 km/h (0 Bft) N-NW 17,9 C 20,9 C
07.07.2012 05:00 20,7 C 84 % 1012,9 hPa 0,0 l/m 0,4 km/h (0 Bft) NW 17,9 C 20,7 C
07.07.2012 06:00 20,6 C 84 % 1012,5 hPa 0,0 l/m 1,6 km/h (1 Bft) NW 17,8 C 20,6 C
07.07.2012 07:00 20,5 C 85 % 1012,6 hPa 0,0 l/m 2,3 km/h (1 Bft) W-NW 17,9 C 20,5 C
07.07.2012 08:00 20,7 C 84 % 1013,0 hPa 0,0 l/m 2,3 km/h (1 Bft) N 17,9 C 20,7 C
07.07.2012 09:00 21,8 C 81 % 1013,4 hPa 0,0 l/m 1,5 km/h (1 Bft) N-NO 18,4 C 21,8 C
07.07.2012 10:00 23,7 C 73 % 1013,3 hPa 0,0 l/m 2,4 km/h (1 Bft) N 18,4 C 23,7 C
07.07.2012 11:00 24,0 C 68 % 1013,7 hPa 0,0 l/m 3,3 km/h (1 Bft) N 17,8 C 24,0 C
07.07.2012 12:00 24,7 C 66 % 1013,6 hPa 0,0 l/m 4,1 km/h (1 Bft) N-NO 17,8 C 24,7 C
07.07.2012 13:00 25,3 C 62 % 1013,5 hPa 0,0 l/m 8,3 km/h (2 Bft) NW 17,5 C 25,3 C
07.07.2012 14:00 21,7 C 70 % 1013,7 hPa 0,0 l/m 4,7 km/h (1 Bft) W-SW 15,9 C 21,7 C
07.07.2012 15:00 22,1 C 76 % 1013,3 hPa 0,5 l/m 4,2 km/h (1 Bft) W-NW 17,5 C 22,1 C
07.07.2012 16:00 24,4 C 61 % 1013,1 hPa 0,0 l/m 1,4 km/h (1 Bft) NW 16,4 C 24,4 C
07.07.2012 17:00 25,3 C 59 % 1013,0 hPa 0,0 l/m 1,1 km/h (1 Bft) W 16,5 C 25,3 C
07.07.2012 18:00 26,6 C 52 % 1012,9 hPa 0,0 l/m 4,1 km/h (1 Bft) W-SW 16,0 C 26,6 C
07.07.2012 19:00 24,6 C 56 % 1012,9 hPa 0,0 l/m 1,9 km/h (1 Bft) W-SW 15,1 C 24,6 C
07.07.2012 20:00 22,7 C 63 % 1012,9 hPa 0,0 l/m 1,7 km/h (1 Bft) SO 15,2 C 22,7 C
07.07.2012 21:00 21,4 C 68 % 1013,2 hPa 0,0 l/m 2,0 km/h (1 Bft) S-SO 15,2 C 21,4 C
07.07.2012 22:00 19,6 C 73 % 1013,2 hPa 0,0 l/m 1,5 km/h (1 Bft) S-SO 14,7 C 19,6 C
07.07.2012 23:00 18,4 C 79 % 1013,3 hPa 0,0 l/m 1,5 km/h (1 Bft) S-SO 14,7 C 18,4 C
08.07.2012 00:00 17,5 C 82 % 1013,1 hPa 0,0 l/m 0,7 km/h (0 Bft) S-SO 14,4 C 17,5 C
08.07.2012 01:00 16,6 C 85 % 1012,8 hPa 0,0 l/m 0,5 km/h (0 Bft) O-SO 14,0 C 16,6 C
08.07.2012 02:00 15,7 C 87 % 1012,6 hPa 0,0 l/m 1,6 km/h (1 Bft) O-SO 13,5 C 15,7 C
08.07.2012 03:00 15,3 C 89 % 1012,4 hPa 0,0 l/m 2,2 km/h (1 Bft) SO 13,4 C 15,3 C
08.07.2012 04:00 14,9 C 89 % 1012,0 hPa 0,0 l/m 1,4 km/h (1 Bft) O-SO 13,1 C 14,9 C
08.07.2012 05:00 14,8 C 91 % 1011,6 hPa 0,0 l/m 2,5 km/h (1 Bft) O-SO 13,3 C 14,8 C
08.07.2012 06:00 21,3 C 72 % 1011,4 hPa 0,0 l/m 3,4 km/h (1 Bft) SO 15,8 C 21,3 C
08.07.2012 07:00 24,0 C 62 % 1011,3 hPa 0,0 l/m 4,2 km/h (1 Bft) O-NO 16,3 C 24,0 C
08.07.2012 08:00 22,9 C 67 % 1011,0 hPa 0,0 l/m 5,0 km/h (1 Bft) SO 16,5 C 22,9 C
08.07.2012 09:00 24,6 C 61 % 1010,4 hPa 0,0 l/m 7,7 km/h (2 Bft) O-SO 16,4 C 24,6 C
08.07.2012 10:00 26,1 C 56 % 1010,0 hPa 0,0 l/m 8,7 km/h (2 Bft) SO 16,5 C 26,1 C
08.07.2012 11:00 26,6 C 52 % 1009,4 hPa 0,0 l/m 8,5 km/h (2 Bft) O-SO 16,0 C 26,6 C
08.07.2012 12:00 27,9 C 48 % 1009,2 hPa 0,0 l/m 9,2 km/h (2 Bft) S-SO 15,8 C 27,9 C
08.07.2012 13:00 29,2 C 45 % 1008,9 hPa 0,0 l/m 10,2 km/h (2 Bft) SO 16,0 C 29,2 C
08.07.2012 14:00 27,8 C 49 % 1008,8 hPa 0,0 l/m 6,8 km/h (2 Bft) S 16,0 C 27,8 C
08.07.2012 15:00 22,9 C 68 % 1009,2 hPa 2,1 l/m 9,5 km/h (2 Bft) W-SW 16,6 C 22,9 C
08.07.2012 16:00 22,8 C 76 % 1008,4 hPa 1,0 l/m 2,7 km/h (1 Bft) S-SO 18,4 C 22,8 C
08.07.2012 17:00 26,5 C 64 % 1007,9 hPa 0,0 l/m 4,1 km/h (1 Bft) S 19,2 C 26,5 C
08.07.2012 18:00 25,6 C 63 % 1007,8 hPa 0,0 l/m 5,5 km/h (1 Bft) S-SW 18,1 C 25,6 C
08.07.2012 19:00 25,2 C 59 % 1007,7 hPa 0,0 l/m 7,0 km/h (2 Bft) SW 16,4 C 25,2 C
08.07.2012 20:00 23,3 C 61 % 1008,0 hPa 0,0 l/m 5,7 km/h (1 Bft) W-SW 15,4 C 23,3 C
08.07.2012 21:00 21,8 C 63 % 1008,3 hPa 0,0 l/m 8,0 km/h (2 Bft) S-SW 14,4 C 21,8 C
08.07.2012 22:00 20,3 C 67 % 1008,6 hPa 0,0 l/m 7,4 km/h (2 Bft) S-SW 13,9 C 20,3 C
08.07.2012 23:00 19,2 C 71 % 1008,8 hPa 0,0 l/m 7,0 km/h (2 Bft) S-SW 13,8 C 19,2 C
Min-Datum _ 02.07.12 08.07.12 08.07.12 - 02.07.12 - 02.07.12 02.07.12
_ Min-Zeit 05:31 13:11 19:01 - 02:46 - 12:51 05:31
Minimum _ 13,5 C 43 % 1007,5 hPa - 0,0 km/h (0 Bft) - 9,6 C 13,5 C
Max-Datum _ 08.07.12 05.07.12 02.07.12 08.07.12 06.07.12 - 06.07.12 08.07.12
_ Max-Zeit 13:06 06:01 09:31 15:41 17:01 - 14:16 13:06
Maximum _ 30,1 C 91 % 1023,3 hPa 2,1 l/m 25,2 km/h
N-NW (4 Bft)
- 20,3 C 30,1 C
Durchschnitt _ 21,0 C 73 % 1015,0 hPa #6,7 l/m 4,0 km/h (1 Bft) O-NO 15,6 C 21,0 C
(c) by David Heller